sensor_id;sensor_type;location;lat;lon;timestamp;P1;P2;P0
80639;PMS5003;69992;60.170;24.692;2023-05-08T00:00:56;4;4;
80639;PMS5003;69992;60.170;24.692;2023-05-08T00:03:22;4;2;
80639;PMS5003;69992;60.170;24.692;2023-05-08T00:05:47;3;3;
80639;PMS5003;69992;60.170;24.692;2023-05-08T00:08:13;5;5;
80639;PMS5003;69992;60.170;24.692;2023-05-08T00:10:38;4;4;
80639;PMS5003;69992;60.170;24.692;2023-05-08T00:13:04;4;4;
80639;PMS5003;69992;60.170;24.692;2023-05-08T00:15:29;3;3;
80639;PMS5003;69992;60.170;24.692;2023-05-08T00:17:54;4;4;
80639;PMS5003;69992;60.170;24.692;2023-05-08T00:20:19;4;4;
80639;PMS5003;69992;60.170;24.692;2023-05-08T00:22:45;3;3;
80639;PMS5003;69992;60.170;24.692;2023-05-08T00:25:10;3;3;
80639;PMS5003;69992;60.170;24.692;2023-05-08T00:27:36;4;3;
80639;PMS5003;69992;60.170;24.692;2023-05-08T00:30:01;3;3;
80639;PMS5003;69992;60.170;24.692;2023-05-08T00:32:27;3;3;
80639;PMS5003;69992;60.170;24.692;2023-05-08T00:34:52;7;5;
80639;PMS5003;69992;60.170;24.692;2023-05-08T00:37:18;4;3;
80639;PMS5003;69992;60.170;24.692;2023-05-08T00:39:43;2;2;
80639;PMS5003;69992;60.170;24.692;2023-05-08T00:42:09;3;3;
80639;PMS5003;69992;60.170;24.692;2023-05-08T00:44:34;3;3;
80639;PMS5003;69992;60.170;24.692;2023-05-08T00:46:59;4;4;
80639;PMS5003;69992;60.170;24.692;2023-05-08T00:49:25;5;5;
80639;PMS5003;69992;60.170;24.692;2023-05-08T00:51:51;4;3;
80639;PMS5003;69992;60.170;24.692;2023-05-08T00:54:15;4;4;
80639;PMS5003;69992;60.170;24.692;2023-05-08T00:56:41;3;3;
80639;PMS5003;69992;60.170;24.692;2023-05-08T00:59:07;4;4;
80639;PMS5003;69992;60.170;24.692;2023-05-08T01:01:32;3;3;
80639;PMS5003;69992;60.170;24.692;2023-05-08T01:03:57;4;4;
80639;PMS5003;69992;60.170;24.692;2023-05-08T01:06:23;3;3;
80639;PMS5003;69992;60.170;24.692;2023-05-08T01:08:48;3;3;
80639;PMS5003;69992;60.170;24.692;2023-05-08T01:11:15;9;4;
80639;PMS5003;69992;60.170;24.692;2023-05-08T01:13:43;5;4;
80639;PMS5003;69992;60.170;24.692;2023-05-08T01:16:08;3;2;
80639;PMS5003;69992;60.170;24.692;2023-05-08T01:18:31;2;2;
80639;PMS5003;69992;60.170;24.692;2023-05-08T01:20:59;3;3;
80639;PMS5003;69992;60.170;24.692;2023-05-08T01:30:45;5;4;
80639;PMS5003;69992;60.170;24.692;2023-05-08T01:33:04;4;4;
80639;PMS5003;69992;60.170;24.692;2023-05-08T01:35:30;4;4;
80639;PMS5003;69992;60.170;24.692;2023-05-08T01:37:56;3;3;
80639;PMS5003;69992;60.170;24.692;2023-05-08T01:40:22;4;4;
80639;PMS5003;69992;60.170;24.692;2023-05-08T01:42:47;4;4;
80639;PMS5003;69992;60.170;24.692;2023-05-08T01:45:11;3;3;
80639;PMS5003;69992;60.170;24.692;2023-05-08T01:47:36;2;2;
80639;PMS5003;69992;60.170;24.692;2023-05-08T01:50:02;4;4;
80639;PMS5003;69992;60.170;24.692;2023-05-08T01:52:28;4;3;
80639;PMS5003;69992;60.170;24.692;2023-05-08T01:54:54;4;4;
80639;PMS5003;69992;60.170;24.692;2023-05-08T01:57:19;4;4;
80639;PMS5003;69992;60.170;24.692;2023-05-08T01:59:44;5;5;
80639;PMS5003;69992;60.170;24.692;2023-05-08T02:02:09;3;3;
80639;PMS5003;69992;60.170;24.692;2023-05-08T02:04:35;4;4;
80639;PMS5003;69992;60.170;24.692;2023-05-08T02:07:01;5;5;
80639;PMS5003;69992;60.170;24.692;2023-05-08T02:09:26;3;3;
80639;PMS5003;69992;60.170;24.692;2023-05-08T02:11:52;3;3;
80639;PMS5003;69992;60.170;24.692;2023-05-08T02:14:17;3;3;
80639;PMS5003;69992;60.170;24.692;2023-05-08T02:16:42;4;4;
80639;PMS5003;69992;60.170;24.692;2023-05-08T02:19:07;3;3;
80639;PMS5003;69992;60.170;24.692;2023-05-08T02:21:33;3;3;
80639;PMS5003;69992;60.170;24.692;2023-05-08T02:23:58;5;4;
80639;PMS5003;69992;60.170;24.692;2023-05-08T02:26:24;4;3;
80639;PMS5003;69992;60.170;24.692;2023-05-08T02:28:49;4;4;
80639;PMS5003;69992;60.170;24.692;2023-05-08T02:31:15;4;4;
80639;PMS5003;69992;60.170;24.692;2023-05-08T02:33:40;4;3;
80639;PMS5003;69992;60.170;24.692;2023-05-08T02:36:06;10;6;
80639;PMS5003;69992;60.170;24.692;2023-05-08T02:38:31;4;4;
80639;PMS5003;69992;60.170;24.692;2023-05-08T02:40:59;4;4;
80639;PMS5003;69992;60.170;24.692;2023-05-08T02:43:22;4;4;
80639;PMS5003;69992;60.170;24.692;2023-05-08T02:45:49;3;3;
80639;PMS5003;69992;60.170;24.692;2023-05-08T02:48:13;5;5;
80639;PMS5003;69992;60.170;24.692;2023-05-08T02:50:41;5;5;
80639;PMS5003;69992;60.170;24.692;2023-05-08T02:53:05;4;3;
80639;PMS5003;69992;60.170;24.692;2023-05-08T02:55:32;4;4;
80639;PMS5003;69992;60.170;24.692;2023-05-08T02:57:58;5;5;
80639;PMS5003;69992;60.170;24.692;2023-05-08T03:00:21;5;4;
80639;PMS5003;69992;60.170;24.692;2023-05-08T03:02:47;5;5;
80639;PMS5003;69992;60.170;24.692;2023-05-08T03:05:12;5;5;
80639;PMS5003;69992;60.170;24.692;2023-05-08T03:07:37;4;4;
80639;PMS5003;69992;60.170;24.692;2023-05-08T03:10:04;4;3;
80639;PMS5003;69992;60.170;24.692;2023-05-08T03:12:27;4;4;
80639;PMS5003;69992;60.170;24.692;2023-05-08T03:14:56;4;4;
80639;PMS5003;69992;60.170;24.692;2023-05-08T03:17:18;3;3;
80639;PMS5003;69992;60.170;24.692;2023-05-08T03:19:45;5;5;
80639;PMS5003;69992;60.170;24.692;2023-05-08T03:22:09;4;4;
80639;PMS5003;69992;60.170;24.692;2023-05-08T03:24:34;4;4;
80639;PMS5003;69992;60.170;24.692;2023-05-08T03:26:59;7;7;
80639;PMS5003;69992;60.170;24.692;2023-05-08T03:29:25;10;7;
80639;PMS5003;69992;60.170;24.692;2023-05-08T03:31:50;10;10;
80639;PMS5003;69992;60.170;24.692;2023-05-08T03:34:16;12;12;
80639;PMS5003;69992;60.170;24.692;2023-05-08T03:36:41;10;9;
80639;PMS5003;69992;60.170;24.692;2023-05-08T03:39:07;11;11;
80639;PMS5003;69992;60.170;24.692;2023-05-08T03:41:32;11;11;
80639;PMS5003;69992;60.170;24.692;2023-05-08T03:43:57;12;11;
80639;PMS5003;69992;60.170;24.692;2023-05-08T03:46:23;13;12;
80639;PMS5003;69992;60.170;24.692;2023-05-08T03:48:49;18;14;
80639;PMS5003;69992;60.170;24.692;2023-05-08T03:51:15;12;12;
80639;PMS5003;69992;60.170;24.692;2023-05-08T03:53:40;11;11;
80639;PMS5003;69992;60.170;24.692;2023-05-08T03:56:05;13;11;
80639;PMS5003;69992;60.170;24.692;2023-05-08T03:58:33;11;11;
80639;PMS5003;69992;60.170;24.692;2023-05-08T04:00:59;7;6;
80639;PMS5003;69992;60.170;24.692;2023-05-08T04:03:23;7;7;
80639;PMS5003;69992;60.170;24.692;2023-05-08T04:05:50;7;6;
80639;PMS5003;69992;60.170;24.692;2023-05-08T04:08:15;6;6;
80639;PMS5003;69992;60.170;24.692;2023-05-08T04:10:41;7;6;
80639;PMS5003;69992;60.170;24.692;2023-05-08T04:13:08;7;7;
80639;PMS5003;69992;60.170;24.692;2023-05-08T04:15:33;7;6;
80639;PMS5003;69992;60.170;24.692;2023-05-08T04:17:58;7;5;
80639;PMS5003;69992;60.170;24.692;2023-05-08T04:20:25;8;6;
80639;PMS5003;69992;60.170;24.692;2023-05-08T04:22:49;5;3;
80639;PMS5003;69992;60.170;24.692;2023-05-08T04:25:15;5;4;
80639;PMS5003;69992;60.170;24.692;2023-05-08T04:27:41;6;4;
80639;PMS5003;69992;60.170;24.692;2023-05-08T04:30:07;3;3;
80639;PMS5003;69992;60.170;24.692;2023-05-08T04:32:32;5;5;
80639;PMS5003;69992;60.170;24.692;2023-05-08T04:34:58;4;3;
80639;PMS5003;69992;60.170;24.692;2023-05-08T04:37:24;5;5;
80639;PMS5003;69992;60.170;24.692;2023-05-08T04:39:50;4;4;
80639;PMS5003;69992;60.170;24.692;2023-05-08T04:42:15;3;3;
80639;PMS5003;69992;60.170;24.692;2023-05-08T04:44:41;3;3;
80639;PMS5003;69992;60.170;24.692;2023-05-08T04:47:07;3;3;
80639;PMS5003;69992;60.170;24.692;2023-05-08T04:49:33;4;4;
80639;PMS5003;69992;60.170;24.692;2023-05-08T04:51:59;3;3;
80639;PMS5003;69992;60.170;24.692;2023-05-08T04:54:24;4;3;
80639;PMS5003;69992;60.170;24.692;2023-05-08T04:56:50;3;2;
80639;PMS5003;69992;60.170;24.692;2023-05-08T04:59:16;2;2;
80639;PMS5003;69992;60.170;24.692;2023-05-08T05:01:42;4;3;
80639;PMS5003;69992;60.170;24.692;2023-05-08T05:04:07;3;3;
80639;PMS5003;69992;60.170;24.692;2023-05-08T05:06:33;2;2;
80639;PMS5003;69992;60.170;24.692;2023-05-08T05:08:59;3;3;
80639;PMS5003;69992;60.170;24.692;2023-05-08T05:11:25;3;2;
80639;PMS5003;69992;60.170;24.692;2023-05-08T05:13:50;2;2;
80639;PMS5003;69992;60.170;24.692;2023-05-08T05:16:16;3;3;
80639;PMS5003;69992;60.170;24.692;2023-05-08T05:18:42;2;2;
80639;PMS5003;69992;60.170;24.692;2023-05-08T05:21:08;4;4;
80639;PMS5003;69992;60.170;24.692;2023-05-08T05:23:33;4;3;
80639;PMS5003;69992;60.170;24.692;2023-05-08T05:25:59;3;3;
80639;PMS5003;69992;60.170;24.692;2023-05-08T05:28:25;3;3;
80639;PMS5003;69992;60.170;24.692;2023-05-08T05:30:51;4;4;
80639;PMS5003;69992;60.170;24.692;2023-05-08T05:33:16;2;2;
80639;PMS5003;69992;60.170;24.692;2023-05-08T05:35:42;4;3;
80639;PMS5003;69992;60.170;24.692;2023-05-08T05:38:08;3;3;
80639;PMS5003;69992;60.170;24.692;2023-05-08T05:40:34;4;4;
80639;PMS5003;69992;60.170;24.692;2023-05-08T05:42:59;7;5;
80639;PMS5003;69992;60.170;24.692;2023-05-08T05:45:25;3;3;
80639;PMS5003;69992;60.170;24.692;2023-05-08T05:47:51;4;3;
80639;PMS5003;69992;60.170;24.692;2023-05-08T05:50:17;4;4;
80639;PMS5003;69992;60.170;24.692;2023-05-08T05:52:42;4;3;
80639;PMS5003;69992;60.170;24.692;2023-05-08T05:55:08;5;4;
80639;PMS5003;69992;60.170;24.692;2023-05-08T05:57:34;2;2;
80639;PMS5003;69992;60.170;24.692;2023-05-08T05:59:59;4;4;
80639;PMS5003;69992;60.170;24.692;2023-05-08T06:02:25;7;6;
80639;PMS5003;69992;60.170;24.692;2023-05-08T06:04:51;4;4;
80639;PMS5003;69992;60.170;24.692;2023-05-08T06:07:16;4;3;
80639;PMS5003;69992;60.170;24.692;2023-05-08T06:09:42;5;4;
80639;PMS5003;69992;60.170;24.692;2023-05-08T06:12:08;3;3;
80639;PMS5003;69992;60.170;24.692;2023-05-08T06:14:34;5;5;
80639;PMS5003;69992;60.170;24.692;2023-05-08T06:16:59;4;3;
80639;PMS5003;69992;60.170;24.692;2023-05-08T06:19:25;5;5;
80639;PMS5003;69992;60.170;24.692;2023-05-08T06:21:51;3;3;
80639;PMS5003;69992;60.170;24.692;2023-05-08T06:24:16;7;4;
80639;PMS5003;69992;60.170;24.692;2023-05-08T06:26:42;3;3;
80639;PMS5003;69992;60.170;24.692;2023-05-08T06:29:08;4;4;
80639;PMS5003;69992;60.170;24.692;2023-05-08T06:31:33;3;2;
80639;PMS5003;69992;60.170;24.692;2023-05-08T06:33:59;3;3;
80639;PMS5003;69992;60.170;24.692;2023-05-08T06:36:25;3;3;
80639;PMS5003;69992;60.170;24.692;2023-05-08T06:38:51;1;1;
80639;PMS5003;69992;60.170;24.692;2023-05-08T06:41:16;3;3;
80639;PMS5003;69992;60.170;24.692;2023-05-08T06:43:42;4;3;
80639;PMS5003;69992;60.170;24.692;2023-05-08T06:46:08;3;3;
80639;PMS5003;69992;60.170;24.692;2023-05-08T06:48:33;4;4;
80639;PMS5003;69992;60.170;24.692;2023-05-08T06:50:59;4;4;
80639;PMS5003;69992;60.170;24.692;2023-05-08T06:53:25;3;3;
80639;PMS5003;69992;60.170;24.692;2023-05-08T06:55:50;2;1;
80639;PMS5003;69992;60.170;24.692;2023-05-08T06:58:16;3;2;
80639;PMS5003;69992;60.170;24.692;2023-05-08T07:00:42;5;4;
80639;PMS5003;69992;60.170;24.692;2023-05-08T07:03:07;2;2;
80639;PMS5003;69992;60.170;24.692;2023-05-08T07:05:33;3;2;
80639;PMS5003;69992;60.170;24.692;2023-05-08T07:07:59;5;4;
80639;PMS5003;69992;60.170;24.692;2023-05-08T07:10:24;3;3;
80639;PMS5003;69992;60.170;24.692;2023-05-08T07:12:50;2;2;
80639;PMS5003;69992;60.170;24.692;2023-05-08T07:15:16;4;2;
80639;PMS5003;69992;60.170;24.692;2023-05-08T07:17:41;2;2;
80639;PMS5003;69992;60.170;24.692;2023-05-08T07:20:07;2;2;
80639;PMS5003;69992;60.170;24.692;2023-05-08T07:22:33;2;2;
80639;PMS5003;69992;60.170;24.692;2023-05-08T07:24:58;1;1;
80639;PMS5003;69992;60.170;24.692;2023-05-08T07:27:24;2;2;
80639;PMS5003;69992;60.170;24.692;2023-05-08T07:29:49;1;1;
80639;PMS5003;69992;60.170;24.692;2023-05-08T07:32:15;2;2;
80639;PMS5003;69992;60.170;24.692;2023-05-08T07:34:41;1;1;
80639;PMS5003;69992;60.170;24.692;2023-05-08T07:37:06;3;3;
80639;PMS5003;69992;60.170;24.692;2023-05-08T07:39:32;2;2;
80639;PMS5003;69992;60.170;24.692;2023-05-08T07:41:58;2;2;
80639;PMS5003;69992;60.170;24.692;2023-05-08T07:44:23;1;1;
80639;PMS5003;69992;60.170;24.692;2023-05-08T07:46:49;2;2;
80639;PMS5003;69992;60.170;24.692;2023-05-08T07:49:14;3;3;
80639;PMS5003;69992;60.170;24.692;2023-05-08T07:51:40;3;3;
80639;PMS5003;69992;60.170;24.692;2023-05-08T07:54:05;2;2;
80639;PMS5003;69992;60.170;24.692;2023-05-08T07:56:31;2;2;
80639;PMS5003;69992;60.170;24.692;2023-05-08T07:58:57;1;1;
80639;PMS5003;69992;60.170;24.692;2023-05-08T08:01:22;1;1;
80639;PMS5003;69992;60.170;24.692;2023-05-08T08:03:48;3;3;
80639;PMS5003;69992;60.170;24.692;2023-05-08T08:06:13;2;2;
80639;PMS5003;69992;60.170;24.692;2023-05-08T08:08:39;0;0;
80639;PMS5003;69992;60.170;24.692;2023-05-08T08:11:05;0;0;
80639;PMS5003;69992;60.170;24.692;2023-05-08T08:13:30;4;3;
80639;PMS5003;69992;60.170;24.692;2023-05-08T08:15:56;6;2;
80639;PMS5003;69992;60.170;24.692;2023-05-08T08:18:21;2;2;
80639;PMS5003;69992;60.170;24.692;2023-05-08T08:20:47;1;1;
80639;PMS5003;69992;60.170;24.692;2023-05-08T08:23:12;1;1;
80639;PMS5003;69992;60.170;24.692;2023-05-08T08:25:38;2;2;
80639;PMS5003;69992;60.170;24.692;2023-05-08T08:28:04;2;2;
80639;PMS5003;69992;60.170;24.692;2023-05-08T08:30:29;1;1;
80639;PMS5003;69992;60.170;24.692;2023-05-08T08:32:55;3;3;
80639;PMS5003;69992;60.170;24.692;2023-05-08T08:35:20;3;2;
80639;PMS5003;69992;60.170;24.692;2023-05-08T08:37:46;2;2;
80639;PMS5003;69992;60.170;24.692;2023-05-08T08:40:12;3;3;
80639;PMS5003;69992;60.170;24.692;2023-05-08T08:42:37;2;2;
80639;PMS5003;69992;60.170;24.692;2023-05-08T08:45:03;2;2;
80639;PMS5003;69992;60.170;24.692;2023-05-08T08:47:29;3;2;
80639;PMS5003;69992;60.170;24.692;2023-05-08T08:49:54;3;2;
80639;PMS5003;69992;60.170;24.692;2023-05-08T08:52:25;4;2;
80639;PMS5003;69992;60.170;24.692;2023-05-08T08:54:45;3;3;
80639;PMS5003;69992;60.170;24.692;2023-05-08T08:57:10;3;3;
80639;PMS5003;69992;60.170;24.692;2023-05-08T08:59:36;2;2;
80639;PMS5003;69992;60.170;24.692;2023-05-08T09:02:04;2;2;
80639;PMS5003;69992;60.170;24.692;2023-05-08T09:04:27;3;3;
80639;PMS5003;69992;60.170;24.692;2023-05-08T09:06:53;3;2;
80639;PMS5003;69992;60.170;24.692;2023-05-08T09:09:18;4;3;
80639;PMS5003;69992;60.170;24.692;2023-05-08T09:11:44;2;2;
80639;PMS5003;69992;60.170;24.692;2023-05-08T09:14:09;3;3;
80639;PMS5003;69992;60.170;24.692;2023-05-08T09:16:35;2;2;
80639;PMS5003;69992;60.170;24.692;2023-05-08T09:19:00;1;1;
80639;PMS5003;69992;60.170;24.692;2023-05-08T09:21:26;3;2;
80639;PMS5003;69992;60.170;24.692;2023-05-08T09:23:55;3;3;
80639;PMS5003;69992;60.170;24.692;2023-05-08T09:28:42;3;3;
80639;PMS5003;69992;60.170;24.692;2023-05-08T09:31:08;1;1;
80639;PMS5003;69992;60.170;24.692;2023-05-08T09:33:33;2;2;
80639;PMS5003;69992;60.170;24.692;2023-05-08T09:35:59;3;3;
80639;PMS5003;69992;60.170;24.692;2023-05-08T09:40:53;3;3;
80639;PMS5003;69992;60.170;24.692;2023-05-08T09:43:15;2;2;
80639;PMS5003;69992;60.170;24.692;2023-05-08T09:45:41;2;2;
80639;PMS5003;69992;60.170;24.692;2023-05-08T09:48:06;2;2;
80639;PMS5003;69992;60.170;24.692;2023-05-08T09:50:32;0;0;
80639;PMS5003;69992;60.170;24.692;2023-05-08T09:52:57;3;3;
80639;PMS5003;69992;60.170;24.692;2023-05-08T09:55:22;2;2;
80639;PMS5003;69992;60.170;24.692;2023-05-08T09:57:52;3;3;
80639;PMS5003;69992;60.170;24.692;2023-05-08T10:00:14;4;3;
80639;PMS5003;69992;60.170;24.692;2023-05-08T10:02:39;3;3;
80639;PMS5003;69992;60.170;24.692;2023-05-08T10:05:21;3;3;
80639;PMS5003;69992;60.170;24.692;2023-05-08T10:07:30;2;2;
80639;PMS5003;69992;60.170;24.692;2023-05-08T10:09:56;2;2;
80639;PMS5003;69992;60.170;24.692;2023-05-08T10:12:20;3;2;
80639;PMS5003;69992;60.170;24.692;2023-05-08T10:14:46;2;2;
80639;PMS5003;69992;60.170;24.692;2023-05-08T10:17:11;3;3;
80639;PMS5003;69992;60.170;24.692;2023-05-08T10:19:37;3;3;
80639;PMS5003;69992;60.170;24.692;2023-05-08T10:22:02;2;2;
80639;PMS5003;69992;60.170;24.692;2023-05-08T10:24:31;3;2;
80639;PMS5003;69992;60.170;24.692;2023-05-08T10:26:55;3;3;
80639;PMS5003;69992;60.170;24.692;2023-05-08T10:29:20;4;4;
80639;PMS5003;69992;60.170;24.692;2023-05-08T10:31:44;3;3;
80639;PMS5003;69992;60.170;24.692;2023-05-08T10:34:10;3;3;
80639;PMS5003;69992;60.170;24.692;2023-05-08T10:36:34;3;2;
80639;PMS5003;69992;60.170;24.692;2023-05-08T10:39:00;3;3;
80639;PMS5003;69992;60.170;24.692;2023-05-08T10:41:25;3;2;
80639;PMS5003;69992;60.170;24.692;2023-05-08T10:43:50;3;2;
80639;PMS5003;69992;60.170;24.692;2023-05-08T10:46:17;3;3;
80639;PMS5003;69992;60.170;24.692;2023-05-08T10:48:43;3;3;
80639;PMS5003;69992;60.170;24.692;2023-05-08T10:51:08;4;3;
80639;PMS5003;69992;60.170;24.692;2023-05-08T10:53:35;5;4;
80639;PMS5003;69992;60.170;24.692;2023-05-08T10:55:57;1;1;
80639;PMS5003;69992;60.170;24.692;2023-05-08T10:58:28;4;3;
80639;PMS5003;69992;60.170;24.692;2023-05-08T11:03:15;5;5;
80639;PMS5003;69992;60.170;24.692;2023-05-08T11:05:44;4;3;
80639;PMS5003;69992;60.170;24.692;2023-05-08T11:08:12;1;1;
80639;PMS5003;69992;60.170;24.692;2023-05-08T11:10:31;3;3;
80639;PMS5003;69992;60.170;24.692;2023-05-08T11:12:56;2;2;
80639;PMS5003;69992;60.170;24.692;2023-05-08T11:20:12;3;2;
80639;PMS5003;69992;60.170;24.692;2023-05-08T11:22:40;1;1;
80639;PMS5003;69992;60.170;24.692;2023-05-08T11:25:04;3;3;
80639;PMS5003;69992;60.170;24.692;2023-05-08T11:27:31;3;3;
80639;PMS5003;69992;60.170;24.692;2023-05-08T11:32:20;2;2;
80639;PMS5003;69992;60.170;24.692;2023-05-08T11:34:46;2;2;
80639;PMS5003;69992;60.170;24.692;2023-05-08T11:37:16;3;2;
80639;PMS5003;69992;60.170;24.692;2023-05-08T11:39:37;3;3;
80639;PMS5003;69992;60.170;24.692;2023-05-08T11:44:28;2;2;
80639;PMS5003;69992;60.170;24.692;2023-05-08T11:46:54;4;4;
80639;PMS5003;69992;60.170;24.692;2023-05-08T11:49:20;3;1;
80639;PMS5003;69992;60.170;24.692;2023-05-08T11:51:45;2;1;
80639;PMS5003;69992;60.170;24.692;2023-05-08T11:54:11;2;2;
80639;PMS5003;69992;60.170;24.692;2023-05-08T11:56:36;3;3;
80639;PMS5003;69992;60.170;24.692;2023-05-08T11:59:02;2;2;
80639;PMS5003;69992;60.170;24.692;2023-05-08T12:01:27;2;2;
80639;PMS5003;69992;60.170;24.692;2023-05-08T12:06:18;3;2;
80639;PMS5003;69992;60.170;24.692;2023-05-08T12:08:43;4;3;
80639;PMS5003;69992;60.170;24.692;2023-05-08T12:11:09;3;3;
80639;PMS5003;69992;60.170;24.692;2023-05-08T12:13:34;5;5;
80639;PMS5003;69992;60.170;24.692;2023-05-08T12:16:00;2;2;
80639;PMS5003;69992;60.170;24.692;2023-05-08T12:18:25;2;2;
80639;PMS5003;69992;60.170;24.692;2023-05-08T12:20:51;2;2;
80639;PMS5003;69992;60.170;24.692;2023-05-08T12:23:16;3;3;
80639;PMS5003;69992;60.170;24.692;2023-05-08T12:25:41;2;2;
80639;PMS5003;69992;60.170;24.692;2023-05-08T12:28:08;3;2;
80639;PMS5003;69992;60.170;24.692;2023-05-08T12:30:32;3;3;
80639;PMS5003;69992;60.170;24.692;2023-05-08T12:32:58;4;3;
80639;PMS5003;69992;60.170;24.692;2023-05-08T12:35:23;3;2;
80639;PMS5003;69992;60.170;24.692;2023-05-08T12:37:49;1;1;
80639;PMS5003;69992;60.170;24.692;2023-05-08T12:40:23;4;3;
80639;PMS5003;69992;60.170;24.692;2023-05-08T12:42:40;3;3;
80639;PMS5003;69992;60.170;24.692;2023-05-08T12:45:05;2;2;
80639;PMS5003;69992;60.170;24.692;2023-05-08T12:47:30;2;2;
80639;PMS5003;69992;60.170;24.692;2023-05-08T12:49:56;3;3;
80639;PMS5003;69992;60.170;24.692;2023-05-08T12:52:22;3;3;
80639;PMS5003;69992;60.170;24.692;2023-05-08T12:54:47;4;4;
80639;PMS5003;69992;60.170;24.692;2023-05-08T12:57:12;3;3;
80639;PMS5003;69992;60.170;24.692;2023-05-08T12:59:37;2;2;
80639;PMS5003;69992;60.170;24.692;2023-05-08T13:02:03;3;3;
80639;PMS5003;69992;60.170;24.692;2023-05-08T13:04:28;1;0;
80639;PMS5003;69992;60.170;24.692;2023-05-08T13:06:54;3;3;
80639;PMS5003;69992;60.170;24.692;2023-05-08T13:09:19;2;2;
80639;PMS5003;69992;60.170;24.692;2023-05-08T13:11:44;3;2;
80639;PMS5003;69992;60.170;24.692;2023-05-08T13:14:09;4;4;
80639;PMS5003;69992;60.170;24.692;2023-05-08T13:16:41;2;2;
80639;PMS5003;69992;60.170;24.692;2023-05-08T13:19:00;1;1;
80639;PMS5003;69992;60.170;24.692;2023-05-08T13:21:26;1;1;
80639;PMS5003;69992;60.170;24.692;2023-05-08T13:23:51;2;2;
80639;PMS5003;69992;60.170;24.692;2023-05-08T13:26:16;3;2;
80639;PMS5003;69992;60.170;24.692;2023-05-08T13:28:41;2;2;
80639;PMS5003;69992;60.170;24.692;2023-05-08T13:31:07;4;3;
80639;PMS5003;69992;60.170;24.692;2023-05-08T13:33:33;3;3;
80639;PMS5003;69992;60.170;24.692;2023-05-08T13:35:58;2;2;
80639;PMS5003;69992;60.170;24.692;2023-05-08T13:38:23;1;1;
80639;PMS5003;69992;60.170;24.692;2023-05-08T13:40:48;2;2;
80639;PMS5003;69992;60.170;24.692;2023-05-08T13:43:14;2;2;
80639;PMS5003;69992;60.170;24.692;2023-05-08T13:45:39;0;0;
80639;PMS5003;69992;60.170;24.692;2023-05-08T13:48:04;2;2;
80639;PMS5003;69992;60.170;24.692;2023-05-08T13:50:30;2;2;
80639;PMS5003;69992;60.170;24.692;2023-05-08T13:52:55;2;2;
80639;PMS5003;69992;60.170;24.692;2023-05-08T13:55:20;1;1;
80639;PMS5003;69992;60.170;24.692;2023-05-08T13:57:46;2;1;
80639;PMS5003;69992;60.170;24.692;2023-05-08T14:00:11;3;3;
80639;PMS5003;69992;60.170;24.692;2023-05-08T14:02:36;2;2;
80639;PMS5003;69992;60.170;24.692;2023-05-08T14:05:02;3;3;
80639;PMS5003;69992;60.170;24.692;2023-05-08T14:07:27;3;2;
80639;PMS5003;69992;60.170;24.692;2023-05-08T14:09:52;4;3;
80639;PMS5003;69992;60.170;24.692;2023-05-08T14:12:18;3;3;
80639;PMS5003;69992;60.170;24.692;2023-05-08T14:14:43;3;2;
80639;PMS5003;69992;60.170;24.692;2023-05-08T14:17:08;3;3;
80639;PMS5003;69992;60.170;24.692;2023-05-08T14:19:34;2;1;
80639;PMS5003;69992;60.170;24.692;2023-05-08T14:21:59;3;3;
80639;PMS5003;69992;60.170;24.692;2023-05-08T14:24:24;2;2;
80639;PMS5003;69992;60.170;24.692;2023-05-08T14:26:50;2;2;
80639;PMS5003;69992;60.170;24.692;2023-05-08T14:29:15;2;2;
80639;PMS5003;69992;60.170;24.692;2023-05-08T14:31:40;2;2;
80639;PMS5003;69992;60.170;24.692;2023-05-08T14:34:06;1;1;
80639;PMS5003;69992;60.170;24.692;2023-05-08T14:36:31;3;3;
80639;PMS5003;69992;60.170;24.692;2023-05-08T14:38:56;3;3;
80639;PMS5003;69992;60.170;24.692;2023-05-08T14:41:25;3;3;
80639;PMS5003;69992;60.170;24.692;2023-05-08T14:43:47;2;2;
80639;PMS5003;69992;60.170;24.692;2023-05-08T14:46:12;2;2;
80639;PMS5003;69992;60.170;24.692;2023-05-08T14:48:38;2;2;
80639;PMS5003;69992;60.170;24.692;2023-05-08T14:51:03;2;2;
80639;PMS5003;69992;60.170;24.692;2023-05-08T14:53:29;2;2;
80639;PMS5003;69992;60.170;24.692;2023-05-08T14:55:54;3;2;
80639;PMS5003;69992;60.170;24.692;2023-05-08T14:58:19;2;2;
80639;PMS5003;69992;60.170;24.692;2023-05-08T15:00:45;3;3;
80639;PMS5003;69992;60.170;24.692;2023-05-08T15:03:10;2;2;
80639;PMS5003;69992;60.170;24.692;2023-05-08T15:05:36;3;3;
80639;PMS5003;69992;60.170;24.692;2023-05-08T15:08:01;3;2;
80639;PMS5003;69992;60.170;24.692;2023-05-08T15:10:26;3;3;
80639;PMS5003;69992;60.170;24.692;2023-05-08T15:12:52;3;2;
80639;PMS5003;69992;60.170;24.692;2023-05-08T15:15:17;2;2;
80639;PMS5003;69992;60.170;24.692;2023-05-08T15:17:43;3;3;
80639;PMS5003;69992;60.170;24.692;2023-05-08T15:20:08;3;2;
80639;PMS5003;69992;60.170;24.692;2023-05-08T15:22:33;3;3;
80639;PMS5003;69992;60.170;24.692;2023-05-08T15:24:59;3;2;
80639;PMS5003;69992;60.170;24.692;2023-05-08T15:27:24;2;2;
80639;PMS5003;69992;60.170;24.692;2023-05-08T15:29:50;2;2;
80639;PMS5003;69992;60.170;24.692;2023-05-08T15:32:15;3;2;
80639;PMS5003;69992;60.170;24.692;2023-05-08T15:34:40;1;1;
80639;PMS5003;69992;60.170;24.692;2023-05-08T15:37:06;2;2;
80639;PMS5003;69992;60.170;24.692;2023-05-08T15:39:34;2;2;
80639;PMS5003;69992;60.170;24.692;2023-05-08T15:41:57;2;2;
80639;PMS5003;69992;60.170;24.692;2023-05-08T15:44:22;2;2;
80639;PMS5003;69992;60.170;24.692;2023-05-08T15:46:47;2;2;
80639;PMS5003;69992;60.170;24.692;2023-05-08T15:49:13;1;1;
80639;PMS5003;69992;60.170;24.692;2023-05-08T15:51:38;2;2;
80639;PMS5003;69992;60.170;24.692;2023-05-08T15:54:04;2;2;
80639;PMS5003;69992;60.170;24.692;2023-05-08T15:56:29;3;3;
80639;PMS5003;69992;60.170;24.692;2023-05-08T15:58:55;2;2;
80639;PMS5003;69992;60.170;24.692;2023-05-08T16:01:20;2;2;
80639;PMS5003;69992;60.170;24.692;2023-05-08T16:03:45;2;2;
80639;PMS5003;69992;60.170;24.692;2023-05-08T16:06:11;2;2;
80639;PMS5003;69992;60.170;24.692;2023-05-08T16:08:36;2;2;
80639;PMS5003;69992;60.170;24.692;2023-05-08T16:11:02;3;2;
80639;PMS5003;69992;60.170;24.692;2023-05-08T16:13:28;2;2;
80639;PMS5003;69992;60.170;24.692;2023-05-08T16:15:53;2;2;
80639;PMS5003;69992;60.170;24.692;2023-05-08T16:18:18;3;2;
80639;PMS5003;69992;60.170;24.692;2023-05-08T16:20:44;2;2;
80639;PMS5003;69992;60.170;24.692;2023-05-08T16:23:09;2;2;
80639;PMS5003;69992;60.170;24.692;2023-05-08T16:25:35;4;3;
80639;PMS5003;69992;60.170;24.692;2023-05-08T16:28:00;2;2;
80639;PMS5003;69992;60.170;24.692;2023-05-08T16:30:26;4;3;
80639;PMS5003;69992;60.170;24.692;2023-05-08T16:32:51;3;3;
80639;PMS5003;69992;60.170;24.692;2023-05-08T16:35:17;2;2;
80639;PMS5003;69992;60.170;24.692;2023-05-08T16:37:42;2;2;
80639;PMS5003;69992;60.170;24.692;2023-05-08T16:40:08;5;4;
80639;PMS5003;69992;60.170;24.692;2023-05-08T16:42:34;2;2;
80639;PMS5003;69992;60.170;24.692;2023-05-08T16:44:59;3;3;
80639;PMS5003;69992;60.170;24.692;2023-05-08T16:47:24;2;2;